Homewood, Pennsylvania
Current Conditions -  °F | °C
As of 6:53 AM on Monday 22 Dec 2014 (Local Time) from KAGC Reporting Station
Haze Haze  
Wind Chill: 22°   Ceiling: Unl
Heat Index: 27°   Visibility: 6mi
Dew Point: 20°   Wind: 5mph
Humidity: 75%   Direction: 120°ESE
Pressure: 30.11"   Gusts: NA
Location:  40.4519°N, 79.9°W
Report Text: KAGC 221153Z 12004KT 6SM HZ CLR M03/M07 A3011 RMK AO2 SLP215 T10281067 11022 21039 55001
Loading
Personal Weather Stations






























Interactive Weather Map New forecast layout! Learn more

10-Day Weather Forecast

Advertisements
Track Severe Weather on mobile